Impacts TAF Board INFO
IDs:

KFLL - Ft Lauderdale-Hollyw, FL, US

Issued at 2322 UTC 10 Dec 2016
Updated at 0209 UTC 11 Dec 2016
Potential Impact None Slight Moderate High
Time0153Z 11/03Z 11/04Z 11/05Z 11/06Z 11/07Z 11/08Z 11/09Z 11/10Z 11/11Z 11/12Z 11/13Z 11/14Z 11/15Z
Type OBS PRVL PRVL PRVL PRVL PRVL PRVL PRVL PRVL PRVL PRVL PRVL PRVL PRVL
VIS 9 >6 >6 >6 >6 >6 >6 >6 >6 >6 >6 >6 >6 >6
CIG 38 25 25 25 25 25 25 25 25 25 25 25 40 40
Cover OVC OVC OVC OVC OVC OVC OVC OVC OVC OVC OVC OVC OVC OVC
FltCat VFR MVFR MVFR MVFR MVFR MVFR MVFR MVFR MVFR MVFR MVFR MVFR VFR VFR
WX -- VCSH VCSH VCSH VCSH VCSH VCSH VCSH VCSH VCSH VCSH VCSH VCSH VCSH
WDir 70 70 70 70 70 70 70 70 70 70 70 70 90 90
WSpd 13 15 15 15 15 15 15 15 15 15 15 15 15 15
WGst 22 -- -- -- -- -- -- -- -- -- -- -- 25 25

Raw TAF
KFLL 102322Z 1100/1124 07015KT P6SM VCSH SCT010 BKN025 OVC080
  TEMPO 1100/1103 FEW010 SCT025 OVC080
  FM111400 09015G25KT P6SM VCSH SCT020 BKN040 OVC060


Raw METAR
KFLL 110153Z 07013G22KT 9SM FEW023 OVC038 23/18 A3021 RMK AO2 RAB38E51 SLP231 P0000 T02280183
KFLL 110107Z 06014G21KT 10SM FEW023 BKN028 OVC050 23/19 A3021 RMK AO2 T02330189
KFLL 110053Z 06014G24KT 10SM SCT023 BKN033 OVC060 23/19 A3021 RMK AO2 PK WND 06026/0037 RAE16 SLP229 P0000 T02330189
KFLL 110026Z 06016G23KT 9SM SCT021 BKN030 OVC042 23/19 A3020 RMK AO2 RAE16 P0000 T02330189
KFLL 110002Z 06016G23KT 9SM -RA SCT020 BKN027 OVC080 23/19 A3019 RMK AO2 P0000 T02280189
KFLL 102353Z 06018G22KT 9SM -RA SCT021 BKN035 OVC070 23/19 A3020 RMK AO2 RAB53 SLP224 P0000 60000 T02280189 10228 20222 53006

METAR Board
Radar Display
Forecast Discussion